createdAt,value
2022-12-01T00:02:08.221Z,97179.28
2022-12-01T00:04:34.699Z,97175.59
2022-12-01T00:07:01.030Z,97185.50
2022-12-01T00:09:27.353Z,97182.34
2022-12-01T00:11:53.980Z,97180.69
2022-12-01T00:14:20.332Z,97179.06
2022-12-01T00:16:49.228Z,97181.53
2022-12-01T00:19:29.044Z,97178.00
2022-12-01T00:21:55.538Z,97177.00
2022-12-01T00:24:21.961Z,97178.66
2022-12-01T00:26:48.336Z,97174.31
2022-12-01T00:29:14.732Z,97170.63
2022-12-01T00:31:41.186Z,97172.66
2022-12-01T00:34:11.319Z,97169.78
2022-12-01T00:36:37.930Z,97172.66
2022-12-01T00:39:04.312Z,97166.66
2022-12-01T00:41:30.705Z,97167.50
2022-12-01T00:43:57.079Z,97171.22
2022-12-01T00:46:23.481Z,97169.53
2022-12-01T00:48:52.634Z,97177.78
2022-12-01T00:51:19.105Z,97173.44
2022-12-01T00:53:45.496Z,97173.25
2022-12-01T00:56:11.951Z,97173.44
2022-12-01T00:58:38.413Z,97178.19
2022-12-01T01:01:04.876Z,97179.41
2022-12-01T01:03:31.407Z,97185.56
2022-12-01T01:05:57.835Z,97182.25
2022-12-01T01:08:26.310Z,97191.94
2022-12-01T01:10:52.720Z,97187.81
2022-12-01T01:13:19.152Z,97183.91
2022-12-01T01:15:45.669Z,97193.00
2022-12-01T01:18:12.047Z,97197.94
2022-12-01T01:20:38.448Z,97190.13
2022-12-01T01:23:05.071Z,97195.28
2022-12-01T01:25:31.520Z,97197.56
2022-12-01T01:27:58.937Z,97199.22
2022-12-01T01:30:25.470Z,97207.69
2022-12-01T01:32:53.551Z,97204.19
2022-12-01T01:35:21.135Z,97207.50
2022-12-01T01:37:47.582Z,97201.94
2022-12-01T01:40:13.976Z,97208.75
2022-12-01T01:42:40.323Z,97197.63
2022-12-01T01:45:06.707Z,97203.81
2022-12-01T01:47:33.121Z,97208.56
2022-12-01T01:49:59.504Z,97210.25
2022-12-01T01:52:25.961Z,97199.31
2022-12-01T01:54:52.367Z,97201.81
2022-12-01T02:00:11.674Z,97204.28
2022-12-01T02:02:38.039Z,97198.94
2022-12-01T02:05:06.417Z,97196.63
2022-12-01T02:07:32.843Z,97194.97
2022-12-01T02:09:59.342Z,97189.25
2022-12-01T02:12:25.773Z,97202.25
2022-12-01T02:14:52.148Z,97197.28
2022-12-01T02:17:18.566Z,97198.53
2022-12-01T02:19:45.023Z,97202.25
2022-12-01T02:22:11.426Z,97203.72
2022-12-01T02:24:37.814Z,97201.84
2022-12-01T02:27:04.215Z,97195.63
2022-12-01T02:29:30.560Z,97199.97
2022-12-01T02:31:56.920Z,97197.44
2022-12-01T02:34:23.377Z,97195.38
2022-12-01T02:36:49.719Z,97190.47
2022-12-01T02:39:16.069Z,97199.97
2022-12-01T02:41:48.836Z,97192.94
2022-12-01T02:44:15.332Z,97204.09
2022-12-01T02:46:41.684Z,97197.50
2022-12-01T02:49:08.170Z,97208.44
2022-12-01T02:51:35.935Z,97204.75
2022-12-01T02:54:02.313Z,97200.84
2022-12-01T02:56:30.782Z,97199.81
2022-12-01T02:58:57.210Z,97200.19
2022-12-01T03:01:23.716Z,97204.34
2022-12-01T03:03:50.216Z,97204.16
2022-12-01T03:06:16.709Z,97210.31
2022-12-01T03:08:43.101Z,97209.25
2022-12-01T03:11:09.560Z,97204.94
2022-12-01T03:13:36.177Z,97206.34
2022-12-01T03:16:06.976Z,97202.41
2022-12-01T03:18:33.492Z,97198.91
2022-12-01T03:21:00.024Z,97203.66
2022-12-01T03:23:26.411Z,97194.59
2022-12-01T03:25:53.847Z,97190.66
2022-12-01T03:28:21.970Z,97194.59
2022-12-01T03:30:49.074Z,97189.88
2022-12-01T03:33:15.468Z,97192.09
2022-12-01T03:35:41.890Z,97189.88
2022-12-01T03:38:15.693Z,97188.84
2022-12-01T03:40:42.110Z,97194.41
2022-12-01T03:43:08.507Z,97186.56
2022-12-01T03:45:34.908Z,97184.06
2022-12-01T03:48:01.350Z,97191.94
2022-12-01T03:50:27.700Z,97193.75
2022-12-01T03:52:54.152Z,97192.75
2022-12-01T03:55:22.487Z,97194.41
2022-12-01T03:57:48.953Z,97191.53
2022-12-01T04:00:15.413Z,97197.28
2022-12-01T04:02:42.014Z,97192.94
2022-12-01T04:05:08.475Z,97202.44
2022-12-01T04:07:34.996Z,97207.63
2022-12-01T04:10:01.503Z,97208.63
2022-12-01T04:12:28.008Z,97198.53
2022-12-01T04:14:54.454Z,97207.22
2022-12-01T04:17:20.867Z,97201.03
2022-12-01T04:19:47.953Z,97210.72
2022-12-01T04:22:14.665Z,97209.66
2022-12-01T04:24:41.022Z,97212.97
2022-12-01T04:27:07.445Z,97207.81
2022-12-01T04:29:33.847Z,97218.34
2022-12-01T04:32:00.294Z,97216.28
2022-12-01T04:34:26.701Z,97214.44
2022-12-01T04:36:53.077Z,97219.63
2022-12-01T04:39:19.476Z,97218.56
2022-12-01T04:41:45.993Z,97216.28
2022-12-01T04:44:12.496Z,97218.91
2022-12-01T04:46:39.020Z,97220.56
2022-12-01T04:49:06.350Z,97226.78
2022-12-01T04:51:33.547Z,97218.34
2022-12-01T04:54:02.572Z,97219.75
2022-12-01T04:56:29.022Z,97218.53
2022-12-01T04:58:55.490Z,97218.75
2022-12-01T05:01:21.939Z,97215.78
2022-12-01T05:03:48.376Z,97215.41
2022-12-01T05:06:14.790Z,97216.06
2022-12-01T05:08:41.215Z,97220.38
2022-12-01T05:11:07.636Z,97215.84
2022-12-01T05:13:34.048Z,97210.50
2022-12-01T05:16:00.527Z,97210.69
2022-12-01T05:18:26.969Z,97215.00
2022-12-01T05:20:53.423Z,97215.22
2022-12-01T05:23:19.827Z,97213.38
2022-12-01T05:25:46.231Z,97211.06
2022-12-01T05:28:12.657Z,97217.88
2022-12-01T05:30:39.040Z,97212.91
2022-12-01T05:33:05.369Z,97221.28
2022-12-01T05:35:31.793Z,97218.69
2022-12-01T05:37:59.530Z,97208.97
2022-12-01T05:40:28.363Z,97213.72
2022-12-01T05:42:54.789Z,97210.44
2022-12-01T05:45:21.253Z,97213.44
2022-12-01T05:47:47.802Z,97211.22
2022-12-01T05:50:14.217Z,97209.97
2022-12-01T05:52:40.683Z,97219.69
2022-12-01T05:55:07.082Z,97218.88
2022-12-01T05:57:33.477Z,97219.88
2022-12-01T06:00:01.908Z,97228.00
2022-12-01T06:02:28.310Z,97224.84
2022-12-01T06:04:54.674Z,97227.78
2022-12-01T06:07:21.168Z,97223.84
2022-12-01T06:09:47.968Z,97217.47
2022-12-01T06:12:14.571Z,97219.75
2022-12-01T06:14:42.289Z,97216.88
2022-12-01T06:17:08.672Z,97217.94
2022-12-01T06:19:35.272Z,97222.72
2022-12-01T06:22:01.788Z,97219.84
2022-12-01T06:24:28.253Z,97224.00
2022-12-01T06:26:54.723Z,97221.06
2022-12-01T06:29:21.100Z,97230.69
2022-12-01T06:31:50.300Z,97226.31
2022-12-01T06:34:16.836Z,97228.53
2022-12-01T06:36:49.380Z,97230.22
2022-12-01T06:39:15.868Z,97224.84
2022-12-01T06:41:42.276Z,97233.09
2022-12-01T06:44:08.730Z,97232.69
2022-12-01T06:46:35.321Z,97231.22
2022-12-01T06:51:42.568Z,97244.47
2022-12-01T06:54:09.235Z,97249.56
2022-12-01T06:56:38.818Z,97248.16
2022-12-01T06:59:05.669Z,97253.94
2022-12-01T07:01:32.373Z,97259.31
2022-12-01T07:03:58.981Z,97253.59
2022-12-01T07:06:25.433Z,97255.88
2022-12-01T07:08:51.811Z,97269.91
2022-12-01T07:11:18.217Z,97254.22
2022-12-01T07:13:44.658Z,97258.38
2022-12-01T07:16:12.434Z,97256.69
2022-12-01T07:18:40.068Z,97255.03
2022-12-01T07:21:06.504Z,97260.19
2022-12-01T07:23:33.131Z,97266.72
2022-12-01T07:25:59.629Z,97267.00
2022-12-01T07:28:26.091Z,97272.78
2022-12-01T07:30:52.597Z,97272.78
2022-12-01T07:36:04.055Z,97267.41
2022-12-01T07:38:40.963Z,97270.22
2022-12-01T07:41:10.282Z,97274.38
2022-12-01T07:43:36.694Z,97279.88
2022-12-01T07:46:04.097Z,97282.16
2022-12-01T07:48:30.585Z,97281.34
2022-12-01T07:50:57.038Z,97277.44
2022-12-01T07:53:23.482Z,97276.88
2022-12-01T07:55:49.931Z,97276.19
2022-12-01T07:58:16.322Z,97281.59
2022-12-01T08:00:42.755Z,97278.34
2022-12-01T08:03:09.283Z,97274.44
2022-12-01T08:05:35.753Z,97280.25
2022-12-01T08:08:02.206Z,97280.44
2022-12-01T08:10:28.631Z,97282.28
2022-12-01T08:12:55.054Z,97285.59
2022-12-01T08:15:21.592Z,97286.44
2022-12-01T08:17:48.167Z,97283.56
2022-12-01T08:20:16.461Z,97287.88
2022-12-01T08:22:46.015Z,97289.94
2022-12-01T08:25:12.448Z,97279.75
2022-12-01T08:27:38.909Z,97288.25
2022-12-01T08:30:13.729Z,97285.78
2022-12-01T08:32:40.838Z,97289.94
2022-12-01T08:35:07.272Z,97288.09
2022-12-01T08:37:33.740Z,97281.50
2022-12-01T08:40:00.318Z,97290.41
2022-12-01T08:42:26.745Z,97283.56
2022-12-01T08:44:53.211Z,97279.84
2022-12-01T08:47:19.630Z,97287.06
2022-12-01T08:49:47.203Z,97275.53
2022-12-01T08:52:13.723Z,97278.00
2022-12-01T08:54:45.168Z,97292.91
2022-12-01T08:57:11.653Z,97271.25
2022-12-01T08:59:38.122Z,97279.28
2022-12-01T09:02:07.101Z,97272.88
2022-12-01T09:04:33.726Z,97283.81
2022-12-01T09:07:00.181Z,97286.06
2022-12-01T09:09:26.638Z,97289.56
2022-12-01T09:11:55.123Z,97289.75
2022-12-01T09:14:21.554Z,97294.09
2022-12-01T09:16:49.134Z,97301.28
2022-12-01T09:19:20.627Z,97299.41
2022-12-01T09:21:51.614Z,97307.84
2022-12-01T09:24:18.089Z,97308.66
2022-12-01T09:26:44.528Z,97309.31
2022-12-01T09:29:23.035Z,97302.47
2022-12-01T09:31:49.580Z,97314.22
2022-12-01T09:34:16.109Z,97305.97
2022-12-01T09:36:42.488Z,97309.31
2022-12-01T09:39:08.993Z,97314.28
2022-12-01T09:41:35.519Z,97311.59
2022-12-01T09:44:04.335Z,97312.22
2022-12-01T09:49:21.940Z,97317.44
2022-12-01T09:51:48.445Z,97306.72
2022-12-01T09:54:14.835Z,97307.75
2022-12-01T09:56:41.287Z,97308.41
2022-12-01T09:59:07.713Z,97302.22
2022-12-01T10:01:34.208Z,97304.91
2022-12-01T10:04:00.693Z,97308.41
2022-12-01T10:06:28.399Z,97305.53
2022-12-01T10:08:55.531Z,97307.19
2022-12-01T10:11:22.076Z,97307.81
2022-12-01T10:13:48.545Z,97294.00
2022-12-01T10:16:15.007Z,97296.13
2022-12-01T10:18:41.470Z,97297.38
2022-12-01T10:21:07.879Z,97288.31
2022-12-01T10:23:34.282Z,97287.09
2022-12-01T10:26:00.741Z,97288.09
2022-12-01T10:28:27.188Z,97281.06
2022-12-01T10:30:53.556Z,97287.38
2022-12-01T10:33:19.993Z,97275.63
2022-12-01T10:35:47.394Z,97284.88
2022-12-01T10:38:13.863Z,97282.78
2022-12-01T10:40:40.332Z,97278.63
2022-12-01T10:43:06.754Z,97284.00
2022-12-01T10:45:33.243Z,97284.00
2022-12-01T10:48:02.587Z,97283.25
2022-12-01T10:50:30.061Z,97284.25
2022-12-01T10:52:56.477Z,97275.00
2022-12-01T10:55:22.954Z,97280.16
2022-12-01T10:57:49.715Z,97281.56
2022-12-01T11:00:43.270Z,97278.69
2022-12-01T11:03:06.075Z,97266.50
2022-12-01T11:05:32.834Z,97271.03
2022-12-01T11:07:59.415Z,97272.06
2022-12-01T11:10:25.872Z,97270.84
2022-12-01T11:12:52.251Z,97270.66
2022-12-01T11:15:19.809Z,97266.09
2022-12-01T11:17:46.256Z,97267.97
2022-12-01T11:20:12.721Z,97267.16
2022-12-01T11:22:39.206Z,97264.06
2022-12-01T11:25:05.705Z,97259.78
2022-12-01T11:27:32.193Z,97255.50
2022-12-01T11:29:58.611Z,97261.09
2022-12-01T11:32:25.046Z,97259.50
2022-12-01T11:34:51.722Z,97254.78
2022-12-01T11:37:18.218Z,97257.38
2022-12-01T11:39:44.618Z,97259.06
2022-12-01T11:42:11.003Z,97262.19
2022-12-01T11:44:51.315Z,97260.16
2022-12-01T11:47:23.689Z,97255.41
2022-12-01T11:49:50.820Z,97261.03
2022-12-01T11:52:17.381Z,97257.75
2022-12-01T11:54:43.860Z,97256.72
2022-12-01T11:58:12.609Z,97257.69
2022-12-01T11:59:56.735Z,97252.09
2022-12-01T12:02:23.202Z,97249.03
2022-12-01T12:04:49.613Z,97253.38
2022-12-01T12:07:16.049Z,97242.25
2022-12-01T12:09:45.272Z,97254.25
2022-12-01T12:12:14.037Z,97246.16
2022-12-01T12:14:42.381Z,97250.28
2022-12-01T12:17:08.806Z,97251.75
2022-12-01T12:20:00.228Z,97250.91
2022-12-01T12:22:21.705Z,97248.00
2022-12-01T12:24:48.149Z,97244.09
2022-12-01T12:27:16.696Z,97233.78
2022-12-01T12:29:43.240Z,97239.97
2022-12-01T12:32:09.746Z,97234.41
2022-12-01T12:34:36.156Z,97237.44
2022-12-01T12:37:02.611Z,97234.41
2022-12-01T12:39:28.992Z,97232.94
2022-12-01T12:41:55.475Z,97229.41
2022-12-01T12:44:21.931Z,97226.91
2022-12-01T12:46:50.053Z,97225.69
2022-12-01T12:49:20.668Z,97219.13
2022-12-01T12:51:47.380Z,97223.22
2022-12-01T12:54:13.899Z,97220.97
2022-12-01T12:56:40.325Z,97210.88
2022-12-01T12:59:06.792Z,97212.34
2022-12-01T13:01:33.300Z,97210.06
2022-12-01T13:03:59.816Z,97213.53
2022-12-01T13:06:26.293Z,97210.88
2022-12-01T13:08:52.685Z,97212.47
2022-12-01T13:11:19.118Z,97214.75
2022-12-01T13:13:45.506Z,97210.75
2022-12-01T13:16:11.981Z,97203.72
2022-12-01T13:18:38.487Z,97208.94
2022-12-01T13:21:04.846Z,97207.91
2022-12-01T13:23:31.296Z,97215.75
2022-12-01T13:25:57.693Z,97212.25
2022-12-01T13:28:27.078Z,97209.19
2022-12-01T13:30:53.465Z,97210.81
2022-12-01T13:33:19.940Z,97209.41
2022-12-01T13:35:46.404Z,97209.41
2022-12-01T13:38:12.905Z,97207.38
2022-12-01T13:40:39.418Z,97208.38
2022-12-01T13:43:10.451Z,97208.38
2022-12-01T13:45:37.312Z,97209.19
2022-12-01T13:48:03.846Z,97207.56
2022-12-01T13:50:30.360Z,97204.88
2022-12-01T13:52:56.912Z,97201.16
2022-12-01T13:55:23.471Z,97200.13
2022-12-01T13:57:49.928Z,97202.81
2022-12-01T14:00:16.418Z,97204.69
2022-12-01T14:02:42.959Z,97203.84
2022-12-01T14:05:09.600Z,97207.16
2022-12-01T14:07:36.169Z,97207.16
2022-12-01T14:10:02.713Z,97199.31
2022-12-01T14:12:29.131Z,97199.50
2022-12-01T14:14:55.849Z,97195.16
2022-12-01T14:17:23.529Z,97204.03
2022-12-01T14:19:50.068Z,97199.72
2022-12-01T14:22:16.573Z,97198.66
2022-12-01T14:24:42.993Z,97201.88
2022-12-01T14:27:09.369Z,97200.00
2022-12-01T14:29:35.799Z,97196.03
2022-12-01T14:32:02.169Z,97197.28
2022-12-01T14:34:28.592Z,97201.75
2022-12-01T14:39:35.360Z,97209.16
2022-12-01T14:44:53.019Z,97204.16
2022-12-01T14:47:19.672Z,97205.03
2022-12-01T14:49:46.145Z,97207.91
2022-12-01T14:52:14.396Z,97203.56
2022-12-01T14:54:40.908Z,97203.44
2022-12-01T14:57:11.130Z,97203.25
2022-12-01T14:59:41.119Z,97205.34
2022-12-01T15:02:07.677Z,97207.88
2022-12-01T15:04:34.145Z,97206.47
2022-12-01T15:07:00.529Z,97202.97
2022-12-01T15:09:35.256Z,97210.44
2022-12-01T15:12:02.218Z,97200.31
2022-12-01T15:14:29.969Z,97201.59
2022-12-01T15:16:56.460Z,97204.34
2022-12-01T15:19:22.964Z,97201.72
2022-12-01T15:21:49.428Z,97203.81
2022-12-01T15:24:15.835Z,97199.91
2022-12-01T15:26:42.285Z,97202.19
2022-12-01T15:29:10.287Z,97206.53
2022-12-01T15:31:36.781Z,97203.88
2022-12-01T15:34:03.216Z,97204.69
2022-12-01T15:36:29.639Z,97211.91
2022-12-01T15:38:56.098Z,97206.34
2022-12-01T15:41:30.367Z,97204.88
2022-12-01T15:43:57.133Z,97212.28
2022-12-01T15:46:23.580Z,97212.94
2022-12-01T15:48:49.972Z,97211.06
2022-12-01T15:51:16.360Z,97211.91
2022-12-01T15:53:42.754Z,97213.94
2022-12-01T15:56:09.150Z,97210.63
2022-12-01T15:58:35.543Z,97215.81
2022-12-01T16:01:02.029Z,97212.47
2022-12-01T16:03:28.523Z,97214.13
2022-12-01T16:05:54.990Z,97215.13
2022-12-01T16:08:21.487Z,97213.47
2022-12-01T16:10:47.891Z,97212.44
2022-12-01T16:13:14.276Z,97214.72
2022-12-01T16:15:40.825Z,97212.44
2022-12-01T16:18:07.314Z,97209.72
2022-12-01T16:20:36.746Z,97219.97
2022-12-01T16:23:03.173Z,97219.97
2022-12-01T16:25:29.596Z,97213.78
2022-12-01T16:27:56.083Z,97217.50
2022-12-01T16:30:22.476Z,97217.28
2022-12-01T16:32:48.916Z,97218.97
2022-12-01T16:35:15.291Z,97224.44
2022-12-01T16:37:41.708Z,97221.50
2022-12-01T16:40:08.176Z,97222.13
2022-12-01T16:42:34.633Z,97233.19
2022-12-01T16:45:01.098Z,97227.09
2022-12-01T16:47:28.363Z,97222.81
2022-12-01T16:49:54.813Z,97228.81
2022-12-01T16:52:44.061Z,97231.75
2022-12-01T16:55:08.726Z,97227.00
2022-12-01T16:57:35.185Z,97227.84
2022-12-01T17:00:01.652Z,97226.41
2022-12-01T17:02:28.288Z,97222.72
2022-12-01T17:05:03.965Z,97224.59
2022-12-01T17:07:30.405Z,97218.97
2022-12-01T17:09:56.803Z,97225.19
2022-12-01T17:12:23.259Z,97219.63
2022-12-01T17:14:49.927Z,97225.78
2022-12-01T17:17:16.589Z,97226.00
2022-12-01T17:19:42.986Z,97220.63
2022-12-01T17:22:09.448Z,97226.19
2022-12-01T17:24:36.021Z,97230.53
2022-12-01T17:27:03.032Z,97218.97
2022-12-01T17:29:29.570Z,97219.63
2022-12-01T17:31:56.085Z,97219.81
2022-12-01T17:34:22.618Z,97223.13
2022-12-01T17:36:50.064Z,97222.28
2022-12-01T17:39:16.528Z,97214.53
2022-12-01T17:41:42.885Z,97225.69
2022-12-01T17:44:10.249Z,97221.59
2022-12-01T17:46:36.754Z,97223.25
2022-12-01T17:49:03.263Z,97218.47
2022-12-01T17:51:29.617Z,97225.13
2022-12-01T17:53:56.147Z,97224.53
2022-12-01T17:56:22.586Z,97219.97
2022-12-01T17:58:48.945Z,97220.81
2022-12-01T18:01:15.440Z,97227.19
2022-12-01T18:03:41.805Z,97229.00
2022-12-01T18:06:08.198Z,97227.53
2022-12-01T18:08:34.573Z,97225.50
2022-12-01T18:11:00.906Z,97229.81
2022-12-01T18:13:27.650Z,97227.13
2022-12-01T18:16:10.387Z,97232.16
2022-12-01T18:18:37.123Z,97235.38
2022-12-01T18:21:03.543Z,97235.63
2022-12-01T18:23:30.187Z,97233.97
2022-12-01T18:25:56.568Z,97230.66
2022-12-01T18:28:22.960Z,97230.88
2022-12-01T18:30:49.554Z,97228.53
2022-12-01T18:33:16.122Z,97236.16
2022-12-01T18:35:42.496Z,97227.09
2022-12-01T18:38:08.891Z,97223.56
2022-12-01T18:40:35.304Z,97226.47
2022-12-01T18:43:01.726Z,97218.41
2022-12-01T18:45:28.103Z,97218.00
2022-12-01T18:47:54.534Z,97227.66
2022-12-01T18:50:20.925Z,97222.31
2022-12-01T18:52:47.287Z,97219.81
2022-12-01T18:55:13.765Z,97220.88
2022-12-01T18:57:40.126Z,97216.13
2022-12-01T19:00:06.522Z,97215.13
2022-12-01T19:02:32.970Z,97219.00
2022-12-01T19:04:59.417Z,97216.78
2022-12-01T19:07:29.754Z,97222.97
2022-12-01T19:09:56.715Z,97215.88
2022-12-01T19:12:25.078Z,97214.84
2022-12-01T19:14:51.631Z,97219.81
2022-12-01T19:17:21.714Z,97223.53
2022-12-01T19:19:48.167Z,97222.06
2022-12-01T19:22:14.559Z,97221.63
2022-12-01T19:24:42.813Z,97218.56
2022-12-01T19:27:12.343Z,97220.81
2022-12-01T19:29:38.806Z,97226.41
2022-12-01T19:32:05.457Z,97222.53
2022-12-01T19:34:31.970Z,97217.16
2022-12-01T19:36:58.510Z,97227.13
2022-12-01T19:39:24.965Z,97220.53
2022-12-01T19:41:51.403Z,97207.78
2022-12-01T19:44:20.195Z,97220.34
2022-12-01T19:46:46.648Z,97223.22
2022-12-01T19:49:13.218Z,97231.91
2022-12-01T19:51:39.856Z,97230.91
2022-12-01T19:54:06.316Z,97234.59
2022-12-01T19:56:32.663Z,97232.09
2022-12-01T19:58:59.022Z,97239.28
2022-12-01T20:01:25.505Z,97236.19
2022-12-01T20:03:51.947Z,97237.59
2022-12-01T20:06:18.326Z,97242.31
2022-12-01T20:08:47.107Z,97238.59
2022-12-01T20:11:13.687Z,97235.91
2022-12-01T20:13:40.053Z,97242.13
2022-12-01T20:16:06.515Z,97243.13
2022-12-01T20:18:32.928Z,97247.50
2022-12-01T20:20:59.491Z,97241.66
2022-12-01T20:23:26.163Z,97247.69
2022-12-01T20:25:55.484Z,97250.16
2022-12-01T20:28:21.932Z,97250.16
2022-12-01T20:30:48.339Z,97249.97
2022-12-01T20:33:15.198Z,97245.63
2022-12-01T20:35:41.574Z,97246.44
2022-12-01T20:38:07.956Z,97239.06
2022-12-01T20:40:34.366Z,97247.72
2022-12-01T20:43:00.755Z,97252.66
2022-12-01T20:45:27.222Z,97252.66
2022-12-01T20:47:53.610Z,97244.81
2022-12-01T20:50:20.106Z,97244.81
2022-12-01T20:52:46.673Z,97247.09
2022-12-01T20:55:13.080Z,97247.28
2022-12-01T20:57:39.505Z,97242.47
2022-12-01T21:00:06.181Z,97241.66
2022-12-01T21:02:32.606Z,97243.53
2022-12-01T21:04:59.656Z,97238.78
2022-12-01T21:07:28.422Z,97242.31
2022-12-01T21:09:54.878Z,97244.41
2022-12-01T21:12:21.401Z,97245.25
2022-12-01T21:14:48.280Z,97243.22
2022-12-01T21:17:14.879Z,97242.81
2022-12-01T21:19:41.362Z,97251.69
2022-12-01T21:22:07.766Z,97250.66
2022-12-01T21:24:37.904Z,97250.47
2022-12-01T21:27:08.480Z,97243.91
2022-12-01T21:29:34.947Z,97244.28
2022-12-01T21:32:01.405Z,97242.25
2022-12-01T21:34:27.737Z,97236.88
2022-12-01T21:36:54.159Z,97244.91
2022-12-01T21:39:20.622Z,97243.72
2022-12-01T21:41:47.022Z,97234.81
2022-12-01T21:44:13.460Z,97235.66
2022-12-01T21:46:39.952Z,97236.50
2022-12-01T21:49:06.322Z,97241.84
2022-12-01T21:51:32.678Z,97234.81
2022-12-01T21:53:59.100Z,97243.72
2022-12-01T21:56:25.568Z,97240.19
2022-12-01T21:58:51.940Z,97239.97
2022-12-01T22:01:18.526Z,97238.34
2022-12-01T22:03:44.994Z,97238.34
2022-12-01T22:06:29.443Z,97238.34
2022-12-01T22:08:56.758Z,97243.72
2022-12-01T22:11:23.174Z,97246.38
2022-12-01T22:13:49.503Z,97239.38
2022-12-01T22:16:15.965Z,97238.75
2022-12-01T22:18:44.586Z,97242.03
2022-12-01T22:21:12.220Z,97239.97
2022-12-01T22:23:38.651Z,97239.97
2022-12-01T22:26:05.064Z,97246.38
2022-12-01T22:28:31.662Z,97242.88
2022-12-01T22:30:58.229Z,97245.94
2022-12-01T22:33:27.090Z,97240.75
2022-12-01T22:35:54.800Z,97243.44
2022-12-01T22:38:23.884Z,97248.63
2022-12-01T22:40:50.731Z,97247.78
2022-12-01T22:43:18.196Z,97250.66
2022-12-01T22:45:44.649Z,97242.63
2022-12-01T22:48:11.039Z,97240.56
2022-12-01T22:50:37.534Z,97246.78
2022-12-01T22:53:08.827Z,97246.97
2022-12-01T22:55:35.166Z,97241.78
2022-12-01T22:58:03.708Z,97244.28
2022-12-01T23:00:30.244Z,97244.47
2022-12-01T23:02:56.761Z,97240.56
2022-12-01T23:05:23.209Z,97241.22
2022-12-01T23:07:49.669Z,97233.56
2022-12-01T23:10:16.023Z,97238.94
2022-12-01T23:12:42.414Z,97231.72
2022-12-01T23:15:08.765Z,97236.25
2022-12-01T23:17:35.225Z,97236.25
2022-12-01T23:20:01.667Z,97238.53
2022-12-01T23:22:28.108Z,97235.59
2022-12-01T23:24:54.579Z,97236.13
2022-12-01T23:27:21.063Z,97234.53
2022-12-01T23:29:47.600Z,97236.63
2022-12-01T23:32:14.063Z,97228.56
2022-12-01T23:34:42.243Z,97229.22
2022-12-01T23:37:08.941Z,97220.34
2022-12-01T23:39:35.309Z,97220.19
2022-12-01T23:42:01.683Z,97217.66
2022-12-01T23:44:28.053Z,97211.47
2022-12-01T23:46:54.544Z,97212.50
2022-12-01T23:49:20.966Z,97202.44
2022-12-01T23:51:47.322Z,97207.13
2022-12-01T23:54:13.708Z,97205.16
2022-12-01T23:56:40.080Z,97206.66
2022-12-01T23:59:06.581Z,97203.03
